createdAt,value
2019-06-26T00:04:07.098Z,1.63
2019-06-26T00:09:16.142Z,1.66
2019-06-26T00:14:25.383Z,1.52
2019-06-26T00:19:34.730Z,1.44
2019-06-26T00:24:44.100Z,1.61
2019-06-26T00:29:53.154Z,1.42
2019-06-26T00:35:02.811Z,1.45
2019-06-26T00:40:12.110Z,1.36
2019-06-26T00:45:21.458Z,1.64
2019-06-26T00:50:31.217Z,1.60
2019-06-26T00:55:40.315Z,1.48
2019-06-26T01:00:49.570Z,1.24
2019-06-26T01:05:58.788Z,1.64
2019-06-26T01:11:07.814Z,1.44
2019-06-26T01:16:17.583Z,1.47
2019-06-26T01:21:27.240Z,1.34
2019-06-26T01:26:38.841Z,1.49
2019-06-26T01:31:38.432Z,1.64
2019-06-26T01:36:48.934Z,1.86
2019-06-26T01:41:48.908Z,1.42
2019-06-26T01:46:58.902Z,1.42
2019-06-26T01:52:08.750Z,1.38
2019-06-26T01:57:18.338Z,1.44
2019-06-26T02:02:27.852Z,1.18
2019-06-26T02:07:38.732Z,1.36
2019-06-26T02:12:37.747Z,1.39
2019-06-26T02:17:46.925Z,1.51
2019-06-26T02:22:55.966Z,1.51
2019-06-26T02:28:05.110Z,1.46
2019-06-26T02:33:14.765Z,1.25
2019-06-26T02:38:24.632Z,1.16
2019-06-26T02:43:33.666Z,1.23
2019-06-26T02:48:42.783Z,1.39
2019-06-26T02:53:52.307Z,1.35
2019-06-26T02:59:01.629Z,1.42
2019-06-26T03:04:11.319Z,1.38
2019-06-26T03:09:20.439Z,1.31
2019-06-26T03:14:29.649Z,1.38
2019-06-26T03:19:39.140Z,1.22
2019-06-26T03:24:48.191Z,1.30
2019-06-26T03:29:57.581Z,1.42
2019-06-26T03:35:06.622Z,1.43
2019-06-26T03:40:16.131Z,1.58
2019-06-26T03:45:26.570Z,1.32
2019-06-26T03:50:35.220Z,1.55
2019-06-26T03:55:44.850Z,1.33
2019-06-26T04:00:53.952Z,1.56
2019-06-26T04:06:03.002Z,1.42
2019-06-26T04:11:12.224Z,1.63
2019-06-26T04:16:21.744Z,1.47
2019-06-26T04:21:30.876Z,1.60
2019-06-26T04:26:40.314Z,1.68
2019-06-26T04:31:49.659Z,1.54
2019-06-26T04:36:59.154Z,1.77
2019-06-26T04:42:08.597Z,1.70
2019-06-26T04:47:17.725Z,1.59
2019-06-26T04:52:27.412Z,1.74
2019-06-26T04:57:37.043Z,1.91
2019-06-26T05:02:46.385Z,1.71
2019-06-26T05:07:55.542Z,2.03
2019-06-26T05:13:04.842Z,2.04
2019-06-26T05:18:16.298Z,1.78
2019-06-26T05:23:15.892Z,2.01
2019-06-26T05:28:25.029Z,2.32
2019-06-26T05:33:34.168Z,1.90
2019-06-26T05:38:43.220Z,2.13
2019-06-26T05:43:52.379Z,2.20
2019-06-26T05:49:02.243Z,1.73
2019-06-26T05:54:11.384Z,2.17
2019-06-26T05:59:20.434Z,1.96
2019-06-26T06:04:29.552Z,1.63
2019-06-26T06:09:41.830Z,1.89
2019-06-26T06:14:41.489Z,2.19
2019-06-26T06:19:50.535Z,2.22
2019-06-26T06:25:00.139Z,2.00
2019-06-26T06:30:09.906Z,1.85
2019-06-26T06:35:19.314Z,1.91
2019-06-26T06:40:28.753Z,1.91
2019-06-26T06:45:39.509Z,1.73
2019-06-26T06:50:38.729Z,1.68
2019-06-26T06:55:48.280Z,1.94
2019-06-26T07:00:58.237Z,1.67
2019-06-26T07:06:07.761Z,2.12
2019-06-26T07:11:17.211Z,2.15
2019-06-26T07:16:29.251Z,2.13
2019-06-26T07:21:28.358Z,2.05
2019-06-26T07:26:38.057Z,2.14
2019-06-26T07:31:47.831Z,2.22
2019-06-26T07:36:57.240Z,2.09
2019-06-26T07:42:07.029Z,2.01
2019-06-26T07:47:22.955Z,2.22
2019-06-26T07:52:25.837Z,2.12
2019-06-26T07:57:35.684Z,2.13
2019-06-26T08:02:45.027Z,1.84
2019-06-26T08:07:54.788Z,1.84
2019-06-26T08:13:04.576Z,2.41
2019-06-26T08:18:18.367Z,2.36
2019-06-26T08:23:18.029Z,2.22
2019-06-26T08:28:27.971Z,2.51
2019-06-26T08:33:37.370Z,2.48
2019-06-26T08:38:47.070Z,2.39
2019-06-26T08:43:57.318Z,2.35
2019-06-26T08:48:57.966Z,2.31
2019-06-26T08:53:58.147Z,2.32
2019-06-26T08:58:57.960Z,2.27
2019-06-26T09:04:07.991Z,1.93
2019-06-26T09:09:07.573Z,2.46
2019-06-26T09:14:17.231Z,2.18
2019-06-26T09:19:29.187Z,1.93
2019-06-26T09:24:28.878Z,2.19
2019-06-26T09:29:38.025Z,2.70
2019-06-26T09:34:47.562Z,2.48
2019-06-26T09:39:57.423Z,2.55
2019-06-26T09:45:07.292Z,2.39
2019-06-26T09:50:17.018Z,2.79
2019-06-26T09:55:26.636Z,2.76
2019-06-26T10:00:36.368Z,2.51
2019-06-26T10:05:48.099Z,1.93
2019-06-26T10:10:48.241Z,2.60
2019-06-26T10:15:47.731Z,2.30
2019-06-26T10:20:57.427Z,2.31
2019-06-26T10:26:07.295Z,2.67
2019-06-26T10:31:18.486Z,3.12
2019-06-26T10:36:28.427Z,3.05
2019-06-26T10:41:28.174Z,2.92
2019-06-26T10:46:37.570Z,3.11
2019-06-26T10:51:47.145Z,3.00
2019-06-26T10:56:56.711Z,2.07
2019-06-26T11:02:06.474Z,2.38
2019-06-26T11:07:17.360Z,1.75
2019-06-26T11:12:17.239Z,1.75
2019-06-26T11:17:26.774Z,2.44
2019-06-26T11:22:36.529Z,2.08
2019-06-26T11:27:46.275Z,1.99
2019-06-26T11:32:56.130Z,1.73
2019-06-26T11:38:05.797Z,2.32
2019-06-26T11:43:15.494Z,2.35
2019-06-26T11:48:27.020Z,2.29
2019-06-26T11:53:26.136Z,1.89
2019-06-26T11:58:37.199Z,2.49
2019-06-26T12:03:36.246Z,2.51
2019-06-26T12:08:45.795Z,2.55
2019-06-26T12:13:54.969Z,2.63
2019-06-26T12:19:04.458Z,2.90
2019-06-26T12:24:13.594Z,2.78
2019-06-26T12:29:23.332Z,2.13
2019-06-26T12:34:32.869Z,2.70
2019-06-26T12:39:42.268Z,2.34
2019-06-26T12:44:51.974Z,2.60
2019-06-26T12:50:03.016Z,2.13
2019-06-26T12:55:02.620Z,2.41
2019-06-26T13:00:11.835Z,2.93
2019-06-26T13:05:21.993Z,2.85
2019-06-26T13:10:21.494Z,2.86
2019-06-26T13:15:31.466Z,2.75
2019-06-26T13:20:52.245Z,2.90
2019-06-26T13:25:50.230Z,2.61
2019-06-26T13:31:00.157Z,3.04
2019-06-26T13:36:09.537Z,2.43
2019-06-26T13:41:19.241Z,2.41
2019-06-26T13:46:31.123Z,2.42
2019-06-26T13:51:30.658Z,1.99
2019-06-26T13:56:40.318Z,2.25
2019-06-26T14:01:49.857Z,2.12
2019-06-26T14:06:59.739Z,1.88
2019-06-26T14:12:09.068Z,2.16
2019-06-26T14:17:18.864Z,2.15
2019-06-26T14:22:27.948Z,2.10
2019-06-26T14:27:39.389Z,2.12
2019-06-26T14:32:39.233Z,2.05
2019-06-26T14:37:48.784Z,1.90
2019-06-26T14:42:58.553Z,2.28
2019-06-26T14:48:08.061Z,2.13
2019-06-26T14:53:17.793Z,2.08
2019-06-26T14:58:27.708Z,2.03
2019-06-26T15:03:37.120Z,2.44
2019-06-26T15:08:46.809Z,2.32
2019-06-26T15:13:56.307Z,1.76
2019-06-26T15:19:03.911Z,1.70
2019-06-26T15:24:13.008Z,2.57
2019-06-26T15:29:22.265Z,3.00
2019-06-26T15:34:31.380Z,3.22
2019-06-26T15:39:41.073Z,2.13
2019-06-26T15:44:50.157Z,3.20
2019-06-26T15:49:59.457Z,2.02
2019-06-26T15:55:08.414Z,1.92
2019-06-26T16:00:17.599Z,2.17
2019-06-26T16:05:26.669Z,3.11
2019-06-26T16:10:36.219Z,3.16
2019-06-26T16:15:45.271Z,3.28
2019-06-26T16:20:54.561Z,3.64
2019-06-26T16:26:03.920Z,3.53
2019-06-26T16:31:13.145Z,2.94
2019-06-26T16:36:22.956Z,3.26
2019-06-26T16:41:33.037Z,3.32
2019-06-26T16:46:32.608Z,3.46
2019-06-26T16:51:42.371Z,3.40
2019-06-26T16:56:52.010Z,3.35
2019-06-26T17:02:01.373Z,2.66
2019-06-26T17:07:11.087Z,2.87
2019-06-26T17:12:20.477Z,2.81
2019-06-26T17:17:30.046Z,3.02
2019-06-26T17:22:39.454Z,2.97
2019-06-26T17:27:48.652Z,2.35
2019-06-26T17:32:57.918Z,3.22
2019-06-26T17:38:07.386Z,3.31
2019-06-26T17:43:16.753Z,3.53
2019-06-26T17:48:26.536Z,3.24
2019-06-26T17:53:36.340Z,2.92
2019-06-26T17:58:45.440Z,3.21
2019-06-26T18:03:55.394Z,3.37
2019-06-26T18:09:05.132Z,2.72
2019-06-26T18:14:15.151Z,3.01
2019-06-26T18:19:14.289Z,3.27
2019-06-26T18:24:23.814Z,2.77
2019-06-26T18:29:33.631Z,2.51
2019-06-26T18:34:42.910Z,3.03
2019-06-26T18:39:52.302Z,2.95
2019-06-26T18:45:01.860Z,2.63
2019-06-26T18:50:12.076Z,2.92
2019-06-26T18:55:11.437Z,2.76
2019-06-26T19:00:21.164Z,2.46
2019-06-26T19:05:32.141Z,2.74
2019-06-26T19:10:31.234Z,2.90
2019-06-26T19:15:40.749Z,2.95
2019-06-26T19:20:50.187Z,2.72
2019-06-26T19:25:59.316Z,3.07
2019-06-26T19:31:08.758Z,3.23
2019-06-26T19:36:18.418Z,3.35
2019-06-26T19:41:27.493Z,3.19
2019-06-26T19:46:36.764Z,3.41
2019-06-26T19:51:46.014Z,2.78
2019-06-26T19:56:55.175Z,3.06
2019-06-26T20:02:04.255Z,2.74
2019-06-26T20:07:14.292Z,3.08
2019-06-26T20:12:13.766Z,3.26
2019-06-26T20:17:23.479Z,3.14
2019-06-26T20:22:32.697Z,2.40
2019-06-26T20:27:42.487Z,2.60
2019-06-26T20:32:51.729Z,3.06
2019-06-26T20:38:01.599Z,3.05
2019-06-26T20:43:11.339Z,3.38
2019-06-26T20:48:22.103Z,2.93
2019-06-26T20:53:21.902Z,3.17
2019-06-26T20:58:31.708Z,3.13
2019-06-26T21:03:41.442Z,3.00
2019-06-26T21:08:50.741Z,3.71
2019-06-26T21:14:00.711Z,3.17
2019-06-26T21:19:10.527Z,2.83
2019-06-26T21:24:20.398Z,3.62
2019-06-26T21:29:30.491Z,3.06
2019-06-26T21:34:30.037Z,3.15
2019-06-26T21:39:40.200Z,3.07
2019-06-26T21:44:39.710Z,3.23
2019-06-26T21:49:49.429Z,3.02
2019-06-26T21:54:59.202Z,3.52
2019-06-26T22:00:08.903Z,3.85
2019-06-26T22:05:18.348Z,3.94
2019-06-26T22:10:27.980Z,3.16
2019-06-26T22:15:38.493Z,3.50
2019-06-26T22:20:38.232Z,3.18
2019-06-26T22:25:51.174Z,4.12
2019-06-26T22:30:57.737Z,3.96
2019-06-26T22:35:58.220Z,3.32
2019-06-26T22:40:58.197Z,4.27
2019-06-26T22:46:07.815Z,3.50
2019-06-26T22:51:17.502Z,3.62
2019-06-26T22:56:27.261Z,3.62
2019-06-26T23:01:37.070Z,3.78
2019-06-26T23:06:47.312Z,3.02
2019-06-26T23:11:46.655Z,4.13
2019-06-26T23:16:57.154Z,2.92
2019-06-26T23:21:56.815Z,3.34
2019-06-26T23:27:06.369Z,3.39
2019-06-26T23:32:16.083Z,3.63
2019-06-26T23:37:25.247Z,2.40
2019-06-26T23:42:34.293Z,2.81
2019-06-26T23:47:43.346Z,3.67
2019-06-26T23:52:51.392Z,3.81
2019-06-26T23:58:00.545Z,4.14
